• location
  • image
mod_vvisit_countermod_vvisit_countermod_vvisit_countermod_vvisit_countermod_vvisit_countermod_vvisit_counter
mod_vvisit_counterToday514
mod_vvisit_counterYesterday526
mod_vvisit_counterThis week514
mod_vvisit_counterLast week4584
mod_vvisit_counterThis month15869
mod_vvisit_counterLast month17663
mod_vvisit_counterAll days740761

We have: 35 guests online
Your IP: 54.158.21.160
 , 
Today: Sep 25, 2017
Airport / News / April 2014

April 2014

On 7-8 April, 2014 Siauliai International Airport delegates attended the Nordic Air Cargo Symposium in Stockholm, Sweden. Nordic Air Cargo Symposium is the only regional event focusing on the North European air cargo market, bringing together cargo operators, forwarders, integrators, shippers, airlines, airports, investors, entrepreneurs, suppliers and many more. Due to the current uncertainty concerning where the air cargo industry is heading, all focus was on assessing market trends and how to enhance collaboration between shippers’ needs, forwarders and air carriers.

More information on the website:

 

http://www.euroavia.com/nordic/gallery_2014/nordic_gallery_2014.html


APR2014 sw1APR2014 sw2

Today

Monday, 25 September 2017

Weather Forecast

Siauliai °C
   

Aviation Weather Forecast

[source: ADDS]
METAR
EYSA 251120Z 09014KT CAVOK 18/08 Q1034 BLU NOSIG =
TAF
TAF EYSA 251104Z 2512/2521 09016KT CAVOK =
SR / SS: 04:20 / 16:18 UTC (EYSA 2017-09-25)

Search

Who's Online

We have 35 guests online

tic logo en